sensor_id;sensor_type;location;lat;lon;timestamp;pressure;altitude;pressure_sealevel;temperature;humidity
29417;BME280;28421;51.030;4.006;2023-04-15T01:40:19;100729.56;;;10.14;77.80
29417;BME280;28421;51.030;4.006;2023-04-15T01:43:02;100718.19;;;9.96;77.98
29417;BME280;28421;51.030;4.006;2023-04-15T01:45:28;100704.97;;;9.70;77.62
29417;BME280;28421;51.030;4.006;2023-04-15T01:47:54;100689.56;;;9.64;77.65
29417;BME280;28421;51.030;4.006;2023-04-15T01:50:19;100722.91;;;9.78;77.11
29417;BME280;28421;51.030;4.006;2023-04-15T01:52:46;100694.09;;;9.55;77.06
29417;BME280;28421;51.030;4.006;2023-04-15T01:55:13;100709.50;;;9.69;77.80
29417;BME280;28421;51.030;4.006;2023-04-15T01:57:39;100692.72;;;9.67;77.11
29417;BME280;28421;51.030;4.006;2023-04-15T02:00:06;100704.81;;;9.55;77.73
29417;BME280;28421;51.030;4.006;2023-04-15T02:02:40;100687.06;;;9.46;77.64
29417;BME280;28421;51.030;4.006;2023-04-15T02:05:06;100672.97;;;9.19;77.79
29417;BME280;28421;51.030;4.006;2023-04-15T02:07:32;100694.09;;;9.47;77.47
29417;BME280;28421;51.030;4.006;2023-04-15T02:09:57;100716.22;;;9.57;77.52
29417;BME280;28421;51.030;4.006;2023-04-15T02:12:22;100681.00;;;9.19;78.60
29417;BME280;28421;51.030;4.006;2023-04-15T02:14:48;100708.84;;;9.43;78.26
29417;BME280;28421;51.030;4.006;2023-04-15T02:17:14;100705.84;;;9.46;78.28
29417;BME280;28421;51.030;4.006;2023-04-15T02:19:41;100686.22;;;9.45;78.02
29417;BME280;28421;51.030;4.006;2023-04-15T02:22:07;100708.66;;;9.61;77.25
29417;BME280;28421;51.030;4.006;2023-04-15T02:24:33;100674.31;;;9.15;77.64
29417;BME280;28421;51.030;4.006;2023-04-15T02:27:01;100657.22;;;9.00;77.55
29417;BME280;28421;51.030;4.006;2023-04-15T02:29:30;100696.78;;;9.23;77.38
29417;BME280;28421;51.030;4.006;2023-04-15T02:31:58;100705.78;;;8.89;78.54
29417;BME280;28421;51.030;4.006;2023-04-15T02:34:26;100699.09;;;8.93;78.88
29417;BME280;28421;51.030;4.006;2023-04-15T02:36:51;100744.56;;;9.19;78.32
29417;BME280;28421;51.030;4.006;2023-04-15T02:39:25;100737.19;;;9.13;79.51
29417;BME280;28421;51.030;4.006;2023-04-15T02:41:53;100741.38;;;9.32;79.15
29417;BME280;28421;51.030;4.006;2023-04-15T02:44:35;100740.38;;;9.33;78.98
29417;BME280;28421;51.030;4.006;2023-04-15T02:47:03;100748.91;;;9.20;79.02
29417;BME280;28421;51.030;4.006;2023-04-15T02:49:30;100736.50;;;9.19;79.07
29417;BME280;28421;51.030;4.006;2023-04-15T02:51:58;100715.22;;;9.09;78.97
29417;BME280;28421;51.030;4.006;2023-04-15T02:54:25;100746.22;;;9.20;79.17
29417;BME280;28421;51.030;4.006;2023-04-15T02:57:10;100714.50;;;8.99;79.37
29417;BME280;28421;51.030;4.006;2023-04-15T02:59:37;100726.91;;;8.92;79.84
29417;BME280;28421;51.030;4.006;2023-04-15T03:02:05;100755.59;;;9.08;80.05
29417;BME280;28421;51.030;4.006;2023-04-15T03:04:32;100739.97;;;8.95;80.38
29417;BME280;28421;51.030;4.006;2023-04-15T03:06:59;100745.28;;;8.79;81.60
29417;BME280;28421;51.030;4.006;2023-04-15T03:09:25;100732.44;;;8.90;81.55
29417;BME280;28421;51.030;4.006;2023-04-15T03:11:52;100750.75;;;9.11;80.96
29417;BME280;28421;51.030;4.006;2023-04-15T03:14:19;100730.28;;;9.02;80.71
29417;BME280;28421;51.030;4.006;2023-04-15T03:16:46;100766.84;;;9.11;81.54
29417;BME280;28421;51.030;4.006;2023-04-15T03:19:14;100738.63;;;8.91;82.27
29417;BME280;28421;51.030;4.006;2023-04-15T03:21:41;100731.28;;;8.93;81.81
29417;BME280;28421;51.030;4.006;2023-04-15T03:24:07;100762.47;;;9.02;81.88
29417;BME280;28421;51.030;4.006;2023-04-15T03:26:32;100754.59;;;9.09;81.93
29417;BME280;28421;51.030;4.006;2023-04-15T03:29:01;100782.63;;;9.23;82.39
29417;BME280;28421;51.030;4.006;2023-04-15T03:31:27;100755.28;;;9.11;82.19
29417;BME280;28421;51.030;4.006;2023-04-15T03:33:52;100772.38;;;9.18;81.96
29417;BME280;28421;51.030;4.006;2023-04-15T03:36:18;100773.44;;;8.83;83.32
29417;BME280;28421;51.030;4.006;2023-04-15T03:38:43;100774.66;;;8.88;83.68
29417;BME280;28421;51.030;4.006;2023-04-15T03:41:09;100791.00;;;9.19;83.04
29417;BME280;28421;51.030;4.006;2023-04-15T03:43:34;100783.09;;;9.10;83.04
29417;BME280;28421;51.030;4.006;2023-04-15T03:46:00;100798.03;;;9.20;83.15
29417;BME280;28421;51.030;4.006;2023-04-15T03:48:33;100795.00;;;9.15;83.48
29417;BME280;28421;51.030;4.006;2023-04-15T03:51:01;100810.75;;;9.10;83.81
29417;BME280;28421;51.030;4.006;2023-04-15T03:53:26;100834.41;;;9.15;84.31
29417;BME280;28421;51.030;4.006;2023-04-15T03:55:52;100816.56;;;8.89;85.04
29417;BME280;28421;51.030;4.006;2023-04-15T03:58:17;100809.78;;;8.69;86.63
29417;BME280;28421;51.030;4.006;2023-04-15T04:00:43;100795.56;;;8.77;86.64
29417;BME280;28421;51.030;4.006;2023-04-15T04:03:08;100796.19;;;8.70;86.73
29417;BME280;28421;51.030;4.006;2023-04-15T04:05:34;100820.34;;;8.79;86.82
29417;BME280;28421;51.030;4.006;2023-04-15T04:08:13;100839.59;;;8.74;88.12
29417;BME280;28421;51.030;4.006;2023-04-15T04:10:40;100852.13;;;8.65;88.90
29417;BME280;28421;51.030;4.006;2023-04-15T04:13:08;100851.94;;;8.59;89.86
29417;BME280;28421;51.030;4.006;2023-04-15T04:15:34;100843.59;;;8.70;89.68
29417;BME280;28421;51.030;4.006;2023-04-15T04:17:59;100851.41;;;8.89;88.93
29417;BME280;28421;51.030;4.006;2023-04-15T04:20:25;100827.72;;;8.77;88.42
29417;BME280;28421;51.030;4.006;2023-04-15T04:22:51;100838.31;;;8.86;88.70
29417;BME280;28421;51.030;4.006;2023-04-15T04:25:16;100820.56;;;8.85;88.62
29417;BME280;28421;51.030;4.006;2023-04-15T04:27:42;100832.00;;;9.04;88.73
29417;BME280;28421;51.030;4.006;2023-04-15T04:30:07;100819.09;;;8.99;88.00
29417;BME280;28421;51.030;4.006;2023-04-15T04:32:33;100824.34;;;9.09;87.76
29417;BME280;28421;51.030;4.006;2023-04-15T04:34:58;100839.28;;;9.19;87.42
29417;BME280;28421;51.030;4.006;2023-04-15T04:37:24;100849.50;;;9.16;87.35
29417;BME280;28421;51.030;4.006;2023-04-15T04:39:49;100840.56;;;9.07;87.44
29417;BME280;28421;51.030;4.006;2023-04-15T04:42:15;100856.34;;;9.10;87.49
29417;BME280;28421;51.030;4.006;2023-04-15T04:44:40;100856.94;;;9.30;87.24
29417;BME280;28421;51.030;4.006;2023-04-15T04:47:06;100874.19;;;9.28;87.22
29417;BME280;28421;51.030;4.006;2023-04-15T04:49:32;100849.69;;;9.23;87.09
29417;BME280;28421;51.030;4.006;2023-04-15T04:51:57;100866.00;;;9.37;86.50
29417;BME280;28421;51.030;4.006;2023-04-15T04:54:23;100869.81;;;9.27;86.59
29417;BME280;28421;51.030;4.006;2023-04-15T04:56:48;100849.19;;;9.19;86.61
29417;BME280;28421;51.030;4.006;2023-04-15T04:59:14;100872.06;;;9.48;85.85
29417;BME280;28421;51.030;4.006;2023-04-15T05:01:39;100870.22;;;9.56;85.25
29417;BME280;28421;51.030;4.006;2023-04-15T05:04:05;100863.34;;;9.45;85.62
29417;BME280;28421;51.030;4.006;2023-04-15T05:06:32;100852.06;;;9.26;85.54
29417;BME280;28421;51.030;4.006;2023-04-15T05:08:57;100870.94;;;9.16;86.51
29417;BME280;28421;51.030;4.006;2023-04-15T05:11:23;100854.72;;;9.17;86.21
29417;BME280;28421;51.030;4.006;2023-04-15T05:13:48;100875.72;;;9.30;85.79
29417;BME280;28421;51.030;4.006;2023-04-15T05:16:14;100864.22;;;9.12;85.63
29417;BME280;28421;51.030;4.006;2023-04-15T05:18:39;100873.84;;;9.23;86.52
29417;BME280;28421;51.030;4.006;2023-04-15T05:21:05;100881.47;;;9.01;87.52
29417;BME280;28421;51.030;4.006;2023-04-15T05:23:31;100862.09;;;8.81;88.49
29417;BME280;28421;51.030;4.006;2023-04-15T05:25:56;100903.03;;;9.26;88.26
29417;BME280;28421;51.030;4.006;2023-04-15T05:28:22;100904.06;;;9.41;87.64
29417;BME280;28421;51.030;4.006;2023-04-15T05:30:47;100919.22;;;9.50;87.38
29417;BME280;28421;51.030;4.006;2023-04-15T05:33:13;100891.66;;;9.40;87.41
29417;BME280;28421;51.030;4.006;2023-04-15T05:35:38;100905.94;;;9.49;86.51
29417;BME280;28421;51.030;4.006;2023-04-15T05:38:03;100939.00;;;9.57;87.47
29417;BME280;28421;51.030;4.006;2023-04-15T05:40:29;100892.75;;;9.13;87.85
29417;BME280;28421;51.030;4.006;2023-04-15T05:42:55;100938.44;;;9.29;87.47
29417;BME280;28421;51.030;4.006;2023-04-15T05:45:20;100952.56;;;9.05;87.81
29417;BME280;28421;51.030;4.006;2023-04-15T05:47:46;100925.09;;;9.11;87.05
29417;BME280;28421;51.030;4.006;2023-04-15T05:50:11;100973.19;;;9.39;87.01
29417;BME280;28421;51.030;4.006;2023-04-15T05:52:37;100954.41;;;9.47;86.40
29417;BME280;28421;51.030;4.006;2023-04-15T05:55:02;100949.44;;;9.60;86.38
29417;BME280;28421;51.030;4.006;2023-04-15T05:57:28;100950.00;;;9.30;86.87
29417;BME280;28421;51.030;4.006;2023-04-15T05:59:53;100990.44;;;9.79;86.78
29417;BME280;28421;51.030;4.006;2023-04-15T06:02:21;100962.56;;;9.71;86.31
29417;BME280;28421;51.030;4.006;2023-04-15T06:04:46;100948.63;;;9.76;86.25
29417;BME280;28421;51.030;4.006;2023-04-15T06:07:12;100992.00;;;10.14;85.55
29417;BME280;28421;51.030;4.006;2023-04-15T06:09:38;100968.31;;;9.93;85.22
29417;BME280;28421;51.030;4.006;2023-04-15T06:12:03;101001.41;;;10.02;85.42
29417;BME280;28421;51.030;4.006;2023-04-15T06:14:31;100954.66;;;9.70;85.38
29417;BME280;28421;51.030;4.006;2023-04-15T06:16:56;100956.84;;;9.66;85.71
29417;BME280;28421;51.030;4.006;2023-04-15T06:19:21;100967.59;;;9.66;85.77
29417;BME280;28421;51.030;4.006;2023-04-15T06:21:47;100962.59;;;9.29;86.59
29417;BME280;28421;51.030;4.006;2023-04-15T06:24:12;100997.81;;;9.77;86.15
29417;BME280;28421;51.030;4.006;2023-04-15T06:26:38;101008.78;;;9.91;86.16
29417;BME280;28421;51.030;4.006;2023-04-15T06:29:03;100995.28;;;9.75;84.51
29417;BME280;28421;51.030;4.006;2023-04-15T06:31:29;101014.63;;;9.95;84.82
29417;BME280;28421;51.030;4.006;2023-04-15T06:33:54;101008.31;;;10.12;84.23
29417;BME280;28421;51.030;4.006;2023-04-15T06:36:20;101003.66;;;10.31;83.92
29417;BME280;28421;51.030;4.006;2023-04-15T06:38:45;101027.19;;;10.37;83.38
29417;BME280;28421;51.030;4.006;2023-04-15T06:41:11;101016.03;;;10.24;83.70
29417;BME280;28421;51.030;4.006;2023-04-15T06:43:37;100998.88;;;9.92;84.55
29417;BME280;28421;51.030;4.006;2023-04-15T06:46:03;101018.25;;;10.28;84.06
29417;BME280;28421;51.030;4.006;2023-04-15T06:48:28;101007.88;;;10.33;83.75
29417;BME280;28421;51.030;4.006;2023-04-15T06:50:54;101052.72;;;10.49;83.99
29417;BME280;28421;51.030;4.006;2023-04-15T06:53:19;101000.41;;;10.19;83.20
29417;BME280;28421;51.030;4.006;2023-04-15T06:55:46;101050.03;;;10.57;83.15
29417;BME280;28421;51.030;4.006;2023-04-15T06:58:11;101040.63;;;10.61;82.55
29417;BME280;28421;51.030;4.006;2023-04-15T07:00:37;101053.56;;;10.99;82.16
29417;BME280;28421;51.030;4.006;2023-04-15T07:03:03;101039.44;;;11.05;81.69
29417;BME280;28421;51.030;4.006;2023-04-15T07:05:29;101038.94;;;10.93;80.38
29417;BME280;28421;51.030;4.006;2023-04-15T07:07:55;101070.63;;;11.55;79.38
29417;BME280;28421;51.030;4.006;2023-04-15T07:10:21;101052.59;;;11.55;77.91
29417;BME280;28421;51.030;4.006;2023-04-15T07:12:47;101061.44;;;11.88;77.43
29417;BME280;28421;51.030;4.006;2023-04-15T07:15:12;101091.25;;;12.18;76.43
29417;BME280;28421;51.030;4.006;2023-04-15T07:17:40;101068.72;;;12.11;75.79
29417;BME280;28421;51.030;4.006;2023-04-15T07:20:06;101093.13;;;11.70;74.91
29417;BME280;28421;51.030;4.006;2023-04-15T07:22:32;101112.56;;;12.05;75.54
29417;BME280;28421;51.030;4.006;2023-04-15T07:24:58;101102.38;;;11.76;76.73
29417;BME280;28421;51.030;4.006;2023-04-15T07:27:23;101123.31;;;11.57;74.52
29417;BME280;28421;51.030;4.006;2023-04-15T07:29:49;101063.47;;;11.14;71.53
29417;BME280;28421;51.030;4.006;2023-04-15T07:32:16;101058.28;;;10.88;70.36
29417;BME280;28421;51.030;4.006;2023-04-15T07:34:41;101124.34;;;11.15;70.88
29417;BME280;28421;51.030;4.006;2023-04-15T07:37:07;101071.56;;;10.98;70.04
29417;BME280;28421;51.030;4.006;2023-04-15T07:39:32;101124.00;;;11.35;70.73
29417;BME280;28421;51.030;4.006;2023-04-15T07:41:58;101110.72;;;11.25;71.84
29417;BME280;28421;51.030;4.006;2023-04-15T07:44:25;101120.16;;;10.97;69.25
29417;BME280;28421;51.030;4.006;2023-04-15T07:46:50;101125.00;;;11.42;71.20
29417;BME280;28421;51.030;4.006;2023-04-15T07:49:16;101129.38;;;11.43;70.66
29417;BME280;28421;51.030;4.006;2023-04-15T07:51:43;101110.25;;;10.97;69.00
29417;BME280;28421;51.030;4.006;2023-04-15T07:54:09;101146.22;;;11.45;71.59
29417;BME280;28421;51.030;4.006;2023-04-15T07:56:34;101124.00;;;11.18;67.91
29417;BME280;28421;51.030;4.006;2023-04-15T07:58:59;101152.28;;;11.23;68.49
29417;BME280;28421;51.030;4.006;2023-04-15T08:01:26;101164.25;;;11.12;66.75
29417;BME280;28421;51.030;4.006;2023-04-15T08:03:52;101187.94;;;11.41;67.47
29417;BME280;28421;51.030;4.006;2023-04-15T08:06:17;101196.34;;;11.70;67.81
29417;BME280;28421;51.030;4.006;2023-04-15T08:08:43;101167.72;;;11.69;67.30
29417;BME280;28421;51.030;4.006;2023-04-15T08:11:08;101193.13;;;11.83;67.23
29417;BME280;28421;51.030;4.006;2023-04-15T08:13:34;101127.69;;;11.50;65.09
29417;BME280;28421;51.030;4.006;2023-04-15T08:16:20;101157.09;;;11.76;64.59
29417;BME280;28421;51.030;4.006;2023-04-15T08:18:47;101193.66;;;12.26;64.54
29417;BME280;28421;51.030;4.006;2023-04-15T08:21:13;101184.81;;;12.09;66.26
29417;BME280;28421;51.030;4.006;2023-04-15T08:23:39;101155.81;;;11.31;60.83
29417;BME280;28421;51.030;4.006;2023-04-15T08:26:05;101209.91;;;12.10;64.23
29417;BME280;28421;51.030;4.006;2023-04-15T08:28:31;101194.13;;;11.90;62.11
29417;BME280;28421;51.030;4.006;2023-04-15T08:30:57;101186.88;;;11.99;63.41
29417;BME280;28421;51.030;4.006;2023-04-15T08:33:22;101178.97;;;11.89;62.19
29417;BME280;28421;51.030;4.006;2023-04-15T08:35:48;101188.88;;;11.97;63.91
29417;BME280;28421;51.030;4.006;2023-04-15T08:38:13;101193.78;;;11.77;62.22
29417;BME280;28421;51.030;4.006;2023-04-15T08:40:45;101217.38;;;12.39;63.88
29417;BME280;28421;51.030;4.006;2023-04-15T08:43:33;101219.88;;;12.49;63.20
29417;BME280;28421;51.030;4.006;2023-04-15T08:46:00;101191.88;;;12.02;60.84
29417;BME280;28421;51.030;4.006;2023-04-15T08:48:31;101220.91;;;12.39;61.58
29417;BME280;28421;51.030;4.006;2023-04-15T08:50:57;101242.75;;;12.92;62.11
29417;BME280;28421;51.030;4.006;2023-04-15T08:53:23;101240.09;;;12.84;60.93
29417;BME280;28421;51.030;4.006;2023-04-15T08:55:50;101264.53;;;12.51;59.09
29417;BME280;28421;51.030;4.006;2023-04-15T08:58:18;101265.16;;;12.92;59.28
29417;BME280;28421;51.030;4.006;2023-04-15T09:00:44;101219.63;;;12.89;59.78
29417;BME280;28421;51.030;4.006;2023-04-15T09:03:10;101254.91;;;13.42;58.73
29417;BME280;28421;51.030;4.006;2023-04-15T09:05:36;101235.59;;;13.30;58.81
29417;BME280;28421;51.030;4.006;2023-04-15T09:08:02;101248.00;;;13.62;56.73
29417;BME280;28421;51.030;4.006;2023-04-15T09:10:28;101258.13;;;13.83;57.53
29417;BME280;28421;51.030;4.006;2023-04-15T09:12:54;101262.34;;;13.63;55.97
29417;BME280;28421;51.030;4.006;2023-04-15T09:15:20;101267.19;;;14.05;56.67
29417;BME280;28421;51.030;4.006;2023-04-15T09:17:46;101294.00;;;13.92;57.78
29417;BME280;28421;51.030;4.006;2023-04-15T09:20:15;101262.88;;;13.81;56.30
29417;BME280;28421;51.030;4.006;2023-04-15T09:22:42;101259.22;;;13.89;56.61
29417;BME280;28421;51.030;4.006;2023-04-15T09:30:15;101309.97;;;14.69;53.39
29417;BME280;28421;51.030;4.006;2023-04-15T09:33:10;101307.06;;;14.71;53.67
29417;BME280;28421;51.030;4.006;2023-04-15T09:35:38;101305.94;;;14.80;52.15
29417;BME280;28421;51.030;4.006;2023-04-15T09:38:08;101302.00;;;14.82;50.83
29417;BME280;28421;51.030;4.006;2023-04-15T09:40:41;101337.09;;;14.90;50.77
29417;BME280;28421;51.030;4.006;2023-04-15T09:43:08;101317.59;;;14.80;50.01
29417;BME280;28421;51.030;4.006;2023-04-15T09:45:35;101308.09;;;14.55;48.97
29417;BME280;28421;51.030;4.006;2023-04-15T09:48:20;101336.75;;;14.94;49.53
29417;BME280;28421;51.030;4.006;2023-04-15T09:50:50;101347.66;;;14.85;49.42
29417;BME280;28421;51.030;4.006;2023-04-15T09:53:22;101328.50;;;15.02;50.33
29417;BME280;28421;51.030;4.006;2023-04-15T09:55:58;101358.13;;;15.39;50.92
29417;BME280;28421;51.030;4.006;2023-04-15T09:58:29;101299.03;;;15.13;47.18
29417;BME280;28421;51.030;4.006;2023-04-15T10:00:56;101362.88;;;15.37;47.39
29417;BME280;28421;51.030;4.006;2023-04-15T10:05:50;101373.94;;;15.21;44.05
29417;BME280;28421;51.030;4.006;2023-04-15T10:08:20;101349.16;;;15.39;47.86
29417;BME280;28421;51.030;4.006;2023-04-15T10:10:47;101373.22;;;15.49;46.27
29417;BME280;28421;51.030;4.006;2023-04-15T10:13:16;101348.88;;;15.34;48.04
29417;BME280;28421;51.030;4.006;2023-04-15T10:15:44;101384.22;;;15.62;47.73
29417;BME280;28421;51.030;4.006;2023-04-15T10:18:15;101367.31;;;15.60;46.00
29417;BME280;28421;51.030;4.006;2023-04-15T10:20:42;101366.38;;;15.68;45.17
29417;BME280;28421;51.030;4.006;2023-04-15T10:23:08;101340.91;;;15.47;43.95
29417;BME280;28421;51.030;4.006;2023-04-15T10:25:33;101388.44;;;15.64;45.30
29417;BME280;28421;51.030;4.006;2023-04-15T10:27:59;101377.41;;;15.15;46.37
29417;BME280;28421;51.030;4.006;2023-04-15T10:30:25;101401.38;;;15.33;47.42
29417;BME280;28421;51.030;4.006;2023-04-15T10:32:51;101385.03;;;15.41;48.45
29417;BME280;28421;51.030;4.006;2023-04-15T10:35:18;101372.81;;;15.66;50.46
29417;BME280;28421;51.030;4.006;2023-04-15T10:37:45;101380.66;;;15.76;47.91
29417;BME280;28421;51.030;4.006;2023-04-15T10:40:31;101413.19;;;15.76;50.89
29417;BME280;28421;51.030;4.006;2023-04-15T10:42:59;101367.44;;;15.52;46.88
29417;BME280;28421;51.030;4.006;2023-04-15T10:45:27;101385.88;;;15.78;47.98
29417;BME280;28421;51.030;4.006;2023-04-15T10:47:57;101387.41;;;15.87;46.94
29417;BME280;28421;51.030;4.006;2023-04-15T10:50:26;101406.41;;;15.87;43.40
29417;BME280;28421;51.030;4.006;2023-04-15T10:52:54;101406.84;;;15.90;44.03
29417;BME280;28421;51.030;4.006;2023-04-15T10:55:23;101406.38;;;15.51;43.29
29417;BME280;28421;51.030;4.006;2023-04-15T10:57:53;101376.13;;;15.47;44.54
29417;BME280;28421;51.030;4.006;2023-04-15T11:00:24;101440.81;;;15.86;44.78
29417;BME280;28421;51.030;4.006;2023-04-15T11:02:58;101433.13;;;15.69;41.92
29417;BME280;28421;51.030;4.006;2023-04-15T11:05:49;101444.13;;;16.03;43.57
29417;BME280;28421;51.030;4.006;2023-04-15T11:08:15;101418.28;;;15.86;42.91
29417;BME280;28421;51.030;4.006;2023-04-15T11:15:39;101430.03;;;16.14;40.83
29417;BME280;28421;51.030;4.006;2023-04-15T11:18:14;101465.22;;;16.29;40.83
29417;BME280;28421;51.030;4.006;2023-04-15T11:20:46;101441.09;;;15.26;33.75
29417;BME280;28421;51.030;4.006;2023-04-15T11:23:14;101426.22;;;15.51;37.22
29417;BME280;28421;51.030;4.006;2023-04-15T11:25:40;101449.78;;;15.87;36.44
29417;BME280;28421;51.030;4.006;2023-04-15T11:28:06;101438.72;;;15.67;35.98
29417;BME280;28421;51.030;4.006;2023-04-15T11:30:35;101438.72;;;15.52;35.77
29417;BME280;28421;51.030;4.006;2023-04-15T11:33:04;101471.34;;;15.74;35.41
29417;BME280;28421;51.030;4.006;2023-04-15T11:35:30;101473.47;;;15.78;34.42
29417;BME280;28421;51.030;4.006;2023-04-15T11:37:56;101443.06;;;15.83;37.42
29417;BME280;28421;51.030;4.006;2023-04-15T11:40:28;101442.78;;;15.93;39.02
29417;BME280;28421;51.030;4.006;2023-04-15T11:45:28;101461.59;;;15.79;37.02
29417;BME280;28421;51.030;4.006;2023-04-15T11:47:53;101472.13;;;15.68;34.32
29417;BME280;28421;51.030;4.006;2023-04-15T11:50:20;101506.63;;;15.95;35.22
29417;BME280;28421;51.030;4.006;2023-04-15T11:52:56;101471.97;;;15.76;34.16
29417;BME280;28421;51.030;4.006;2023-04-15T11:55:23;101514.97;;;16.15;37.45
29417;BME280;28421;51.030;4.006;2023-04-15T12:00:34;101478.75;;;15.65;38.10
29417;BME280;28421;51.030;4.006;2023-04-15T12:06:16;101519.81;;;16.41;35.19
29417;BME280;28421;51.030;4.006;2023-04-15T12:09:03;101490.09;;;15.90;35.27
29417;BME280;28421;51.030;4.006;2023-04-15T12:14:11;101543.06;;;16.07;32.88
29417;BME280;28421;51.030;4.006;2023-04-15T12:16:43;101546.38;;;16.46;36.14
29417;BME280;28421;51.030;4.006;2023-04-15T12:19:14;101547.63;;;16.43;37.43
29417;BME280;28421;51.030;4.006;2023-04-15T12:21:44;101509.44;;;15.87;36.02
29417;BME280;28421;51.030;4.006;2023-04-15T12:24:11;101545.53;;;16.02;37.06
29417;BME280;28421;51.030;4.006;2023-04-15T12:26:51;101535.31;;;16.04;35.60
29417;BME280;28421;51.030;4.006;2023-04-15T12:29:17;101525.28;;;16.05;37.25
29417;BME280;28421;51.030;4.006;2023-04-15T12:32:04;101539.38;;;15.79;36.59
29417;BME280;28421;51.030;4.006;2023-04-15T12:34:34;101558.00;;;15.82;37.99
29417;BME280;28421;51.030;4.006;2023-04-15T12:37:02;101558.84;;;15.82;37.66
29417;BME280;28421;51.030;4.006;2023-04-15T12:39:30;101572.69;;;16.09;37.98
29417;BME280;28421;51.030;4.006;2023-04-15T12:41:56;101576.13;;;15.81;38.13
29417;BME280;28421;51.030;4.006;2023-04-15T12:44:23;101554.81;;;15.78;37.32
29417;BME280;28421;51.030;4.006;2023-04-15T12:46:49;101559.28;;;15.86;40.13
29417;BME280;28421;51.030;4.006;2023-04-15T12:49:15;101565.31;;;16.18;37.56
29417;BME280;28421;51.030;4.006;2023-04-15T12:51:41;101574.63;;;16.30;37.63
29417;BME280;28421;51.030;4.006;2023-04-15T12:54:06;101565.38;;;16.24;37.75
29417;BME280;28421;51.030;4.006;2023-04-15T12:56:32;101575.50;;;16.15;38.21
29417;BME280;28421;51.030;4.006;2023-04-15T12:59:02;101549.84;;;15.82;37.76
29417;BME280;28421;51.030;4.006;2023-04-15T13:01:30;101586.03;;;16.25;37.80
29417;BME280;28421;51.030;4.006;2023-04-15T13:03:56;101578.09;;;16.24;39.24
29417;BME280;28421;51.030;4.006;2023-04-15T13:06:21;101599.88;;;15.94;38.34
29417;BME280;28421;51.030;4.006;2023-04-15T13:08:48;101583.25;;;15.82;38.43
29417;BME280;28421;51.030;4.006;2023-04-15T13:11:13;101588.09;;;16.02;37.41
29417;BME280;28421;51.030;4.006;2023-04-15T13:13:39;101586.97;;;15.66;37.77
29417;BME280;28421;51.030;4.006;2023-04-15T13:16:04;101557.50;;;15.34;37.46
29417;BME280;28421;51.030;4.006;2023-04-15T13:18:30;101599.97;;;15.71;37.73
29417;BME280;28421;51.030;4.006;2023-04-15T13:20:56;101596.50;;;15.48;36.56
29417;BME280;28421;51.030;4.006;2023-04-15T13:23:21;101612.16;;;15.37;36.36
29417;BME280;28421;51.030;4.006;2023-04-15T13:25:46;101640.56;;;15.94;37.90
29417;BME280;28421;51.030;4.006;2023-04-15T13:28:12;101623.22;;;15.36;37.83
29417;BME280;28421;51.030;4.006;2023-04-15T13:30:37;101641.63;;;15.40;36.89
29417;BME280;28421;51.030;4.006;2023-04-15T13:33:04;101641.19;;;15.66;38.29
29417;BME280;28421;51.030;4.006;2023-04-15T13:35:31;101644.75;;;16.11;39.79
29417;BME280;28421;51.030;4.006;2023-04-15T13:37:56;101631.22;;;15.97;39.71
29417;BME280;28421;51.030;4.006;2023-04-15T13:40:22;101661.75;;;15.76;38.68
29417;BME280;28421;51.030;4.006;2023-04-15T13:42:47;101651.03;;;15.68;38.98
29417;BME280;28421;51.030;4.006;2023-04-15T13:45:13;101658.34;;;15.97;39.82
29417;BME280;28421;51.030;4.006;2023-04-15T13:47:39;101650.53;;;16.23;39.71
29417;BME280;28421;51.030;4.006;2023-04-15T13:50:05;101643.81;;;16.04;37.29
29417;BME280;28421;51.030;4.006;2023-04-15T13:52:30;101674.41;;;15.83;37.64
29417;BME280;28421;51.030;4.006;2023-04-15T13:54:56;101651.81;;;15.53;38.75
29417;BME280;28421;51.030;4.006;2023-04-15T13:57:21;101670.03;;;15.45;38.04
29417;BME280;28421;51.030;4.006;2023-04-15T13:59:47;101690.97;;;16.03;39.92
29417;BME280;28421;51.030;4.006;2023-04-15T14:02:12;101687.94;;;16.13;38.96
29417;BME280;28421;51.030;4.006;2023-04-15T14:04:37;101630.25;;;16.04;40.24
29417;BME280;28421;51.030;4.006;2023-04-15T14:07:03;101686.75;;;15.86;39.32
29417;BME280;28421;51.030;4.006;2023-04-15T14:09:29;101682.69;;;15.67;38.75
29417;BME280;28421;51.030;4.006;2023-04-15T14:11:54;101686.66;;;15.79;38.55
29417;BME280;28421;51.030;4.006;2023-04-15T14:14:20;101710.25;;;15.94;39.14
29417;BME280;28421;51.030;4.006;2023-04-15T14:16:46;101692.66;;;15.89;40.20
29417;BME280;28421;51.030;4.006;2023-04-15T14:19:13;101700.84;;;15.66;40.92
29417;BME280;28421;51.030;4.006;2023-04-15T14:21:39;101696.19;;;15.90;43.36
29417;BME280;28421;51.030;4.006;2023-04-15T14:24:04;101703.66;;;16.32;44.05
29417;BME280;28421;51.030;4.006;2023-04-15T14:26:30;101719.47;;;15.99;44.14
29417;BME280;28421;51.030;4.006;2023-04-15T14:28:56;101719.28;;;16.01;46.31
29417;BME280;28421;51.030;4.006;2023-04-15T14:31:21;101729.41;;;16.07;45.53
29417;BME280;28421;51.030;4.006;2023-04-15T14:33:46;101713.25;;;15.61;45.25
29417;BME280;28421;51.030;4.006;2023-04-15T14:36:12;101740.16;;;15.85;46.00
29417;BME280;28421;51.030;4.006;2023-04-15T14:38:37;101729.81;;;15.66;45.81
29417;BME280;28421;51.030;4.006;2023-04-15T14:41:07;101693.97;;;15.94;45.42
29417;BME280;28421;51.030;4.006;2023-04-15T14:43:33;101723.28;;;15.75;45.41
29417;BME280;28421;51.030;4.006;2023-04-15T14:45:59;101716.22;;;15.89;44.69
29417;BME280;28421;51.030;4.006;2023-04-15T14:48:24;101753.94;;;15.76;45.24
29417;BME280;28421;51.030;4.006;2023-04-15T14:50:50;101734.38;;;15.28;46.47
29417;BME280;28421;51.030;4.006;2023-04-15T14:53:16;101767.19;;;15.33;45.14
29417;BME280;28421;51.030;4.006;2023-04-15T14:55:41;101756.03;;;15.28;46.38